createdAt,value
2017-01-17T00:00:43.251Z,0.63
2017-01-17T00:01:53.589Z,0.63
2017-01-17T00:03:04.335Z,0.56
2017-01-17T00:04:14.676Z,0.63
2017-01-17T00:05:25.428Z,0.61
2017-01-17T00:06:36.168Z,0.53
2017-01-17T00:07:46.513Z,0.48
2017-01-17T00:08:56.460Z,0.47
2017-01-17T00:10:06.789Z,0.44
2017-01-17T00:11:17.131Z,0.44
2017-01-17T00:12:27.473Z,0.44
2017-01-17T00:13:37.421Z,0.48
2017-01-17T00:14:48.174Z,0.5
2017-01-17T00:15:58.948Z,0.42
2017-01-17T00:17:08.914Z,0.48
2017-01-17T00:18:18.870Z,0.38
2017-01-17T00:19:29.623Z,0.45
2017-01-17T00:20:39.954Z,0.52
2017-01-17T00:21:50.700Z,0.47
2017-01-17T00:23:01.449Z,0.44
2017-01-17T00:24:11.785Z,0.44
2017-01-17T00:25:21.741Z,0.47
2017-01-17T00:26:32.504Z,0.5
2017-01-17T00:27:43.254Z,0.42
2017-01-17T00:28:53.197Z,0.45
2017-01-17T00:30:03.967Z,0.45
2017-01-17T00:31:14.310Z,0.47
2017-01-17T00:32:24.650Z,0.47
2017-01-17T00:33:34.997Z,0.48
2017-01-17T00:34:45.363Z,0.41
2017-01-17T00:35:55.308Z,0.47
2017-01-17T00:37:05.657Z,0.5
2017-01-17T00:38:16.405Z,0.47
2017-01-17T00:39:26.757Z,0.52
2017-01-17T00:40:37.102Z,0.6
2017-01-17T00:41:47.849Z,0.53
2017-01-17T00:42:57.798Z,0.52
2017-01-17T00:44:08.148Z,0.56
2017-01-17T00:45:18.510Z,0.56
2017-01-17T00:46:28.851Z,0.56
2017-01-17T00:47:38.823Z,0.56
2017-01-17T00:48:49.552Z,0.47
2017-01-17T00:49:59.924Z,0.47
2017-01-17T00:51:10.271Z,0.5
2017-01-17T00:52:20.619Z,0.45
2017-01-17T00:53:30.974Z,0.56
2017-01-17T00:54:41.714Z,0.48
2017-01-17T00:55:52.093Z,0.48
2017-01-17T00:57:02.450Z,0.42
2017-01-17T00:58:13.192Z,0.42
2017-01-17T00:59:23.949Z,0.35
2017-01-17T01:00:34.285Z,0.42
2017-01-17T01:01:45.022Z,0.39
2017-01-17T01:02:55.759Z,0.45
2017-01-17T01:04:06.500Z,0.39
2017-01-17T01:05:17.236Z,0.42
2017-01-17T01:06:27.573Z,0.45
2017-01-17T01:07:37.917Z,0.39
2017-01-17T01:08:48.676Z,0.32
2017-01-17T01:09:58.629Z,0.39
2017-01-17T01:11:08.968Z,0.35
2017-01-17T01:12:19.721Z,0.41
2017-01-17T01:13:30.082Z,0.35
2017-01-17T01:14:40.433Z,0.38
2017-01-17T01:15:50.782Z,0.31
2017-01-17T01:17:01.128Z,0.34
2017-01-17T01:18:11.869Z,0.31
2017-01-17T01:19:22.622Z,0.31
2017-01-17T01:20:32.988Z,0.24
2017-01-17T01:21:43.343Z,0.32
2017-01-17T01:22:54.086Z,0.26
2017-01-17T01:24:04.831Z,0.23
2017-01-17T01:25:15.181Z,0.2
2017-01-17T01:26:25.915Z,0.23
2017-01-17T01:27:36.677Z,0.19
2017-01-17T01:28:47.414Z,0.19
2017-01-17T01:29:58.175Z,0.2
2017-01-17T01:31:08.127Z,0.26
2017-01-17T01:32:18.863Z,0.14
2017-01-17T01:33:29.600Z,0.21
2017-01-17T01:34:40.351Z,0.32
2017-01-17T01:35:51.088Z,0.24
2017-01-17T01:37:01.815Z,0.23
2017-01-17T01:38:12.157Z,0.17
2017-01-17T01:39:22.538Z,0.24
2017-01-17T01:40:33.280Z,0.19
2017-01-17T01:41:44.021Z,0.23
2017-01-17T01:42:54.369Z,0.21
2017-01-17T01:44:05.366Z,0.27
2017-01-17T01:45:15.314Z,0.23
2017-01-17T01:46:26.036Z,0.2
2017-01-17T01:47:36.796Z,0.2
2017-01-17T01:48:47.536Z,0.2
2017-01-17T01:49:58.280Z,0.21
2017-01-17T01:51:09.016Z,0.27
2017-01-17T01:52:19.757Z,0.24
2017-01-17T01:53:30.503Z,0.31
2017-01-17T01:54:40.862Z,0.31
2017-01-17T01:55:51.631Z,0.31
2017-01-17T01:57:01.979Z,0.35
2017-01-17T01:58:12.310Z,0.35
2017-01-17T01:59:23.072Z,0.34
2017-01-17T02:00:33.479Z,0.37
2017-01-17T02:01:43.485Z,0.44
2017-01-17T02:02:53.896Z,0.45
2017-01-17T02:04:03.906Z,0.44
2017-01-17T02:05:14.715Z,0.42
2017-01-17T02:06:25.516Z,0.45
2017-01-17T02:07:35.894Z,0.48
2017-01-17T02:08:46.663Z,0.42
2017-01-17T02:09:57.406Z,0.47
2017-01-17T02:11:08.195Z,0.42
2017-01-17T02:12:18.961Z,0.45
2017-01-17T02:13:29.708Z,0.56
2017-01-17T02:14:40.446Z,0.48
2017-01-17T02:15:50.785Z,0.61
2017-01-17T02:17:01.129Z,0.6
2017-01-17T02:18:10.696Z,0.61
2017-01-17T02:19:21.051Z,0.61
2017-01-17T02:20:31.785Z,0.66
2017-01-17T02:21:42.524Z,0.57
2017-01-17T02:22:53.255Z,0.67
2017-01-17T02:24:03.609Z,0.67
2017-01-17T02:25:14.343Z,0.74
2017-01-17T02:26:25.118Z,0.63
2017-01-17T02:27:35.469Z,0.61
2017-01-17T02:28:45.819Z,0.63
2017-01-17T02:29:54.576Z,0.72
2017-01-17T02:31:05.310Z,0.74
2017-01-17T02:32:15.250Z,0.64
2017-01-17T02:33:26.006Z,0.67
2017-01-17T02:34:35.563Z,0.72
2017-01-17T02:35:45.950Z,0.75
2017-01-17T02:36:56.695Z,0.61
2017-01-17T02:38:07.423Z,0.67
2017-01-17T02:39:17.769Z,0.69
2017-01-17T02:40:28.508Z,0.66
2017-01-17T02:41:38.064Z,0.75
2017-01-17T02:42:48.852Z,0.64
2017-01-17T02:43:59.720Z,0.63
2017-01-17T02:45:10.535Z,0.72
2017-01-17T02:46:20.557Z,0.76
2017-01-17T02:47:31.382Z,0.63
2017-01-17T02:48:41.755Z,0.61
2017-01-17T02:49:52.490Z,0.71
2017-01-17T02:51:02.857Z,0.74
2017-01-17T02:52:13.638Z,0.72
2017-01-17T02:53:23.976Z,0.74
2017-01-17T02:54:34.713Z,0.71
2017-01-17T02:55:45.453Z,0.75
2017-01-17T02:56:56.187Z,0.74
2017-01-17T02:58:06.135Z,0.78
2017-01-17T02:59:16.476Z,0.64
2017-01-17T03:00:27.267Z,0.64
2017-01-17T03:01:38.010Z,0.74
2017-01-17T03:33:30.254Z,-2.27
2017-01-17T03:34:40.616Z,-2.37
2017-01-17T03:35:51.344Z,-2.4
2017-01-17T03:37:01.704Z,-2.28
2017-01-17T03:38:12.433Z,-2.15
2017-01-17T03:39:22.775Z,-1.96
2017-01-17T03:40:33.547Z,-1.84
2017-01-17T03:41:43.903Z,-1.74
2017-01-17T03:42:54.643Z,-1.56
2017-01-17T03:44:05.395Z,-1.32
2017-01-17T03:45:16.177Z,-1.14
2017-01-17T03:46:26.559Z,-0.98
2017-01-17T03:47:37.296Z,-0.89
2017-01-17T03:48:48.043Z,-0.64
2017-01-17T03:49:58.816Z,-0.51
2017-01-17T03:51:09.557Z,-0.41
2017-01-17T03:52:19.517Z,-0.3
2017-01-17T03:53:29.475Z,-0.19
2017-01-17T03:54:39.851Z,-0.05
2017-01-17T03:55:50.594Z,0.02
2017-01-17T03:57:00.958Z,0.05
2017-01-17T03:58:10.898Z,0.13
2017-01-17T03:59:21.630Z,0.2
2017-01-17T04:00:32.012Z,0.21
2017-01-17T04:01:42.978Z,0.35
2017-01-17T04:02:53.325Z,0.37
2017-01-17T04:04:04.072Z,0.38
2017-01-17T04:05:14.423Z,0.41
2017-01-17T04:06:25.178Z,0.45
2017-01-17T04:07:35.521Z,0.38
2017-01-17T04:08:45.868Z,0.45
2017-01-17T04:09:56.599Z,0.48
2017-01-17T04:11:07.346Z,0.48
2017-01-17T04:12:17.687Z,0.47
2017-01-17T04:13:28.444Z,0.47
2017-01-17T04:14:38.807Z,0.45
2017-01-17T04:15:49.557Z,0.45
2017-01-17T04:17:00.320Z,0.47
2017-01-17T04:18:11.067Z,0.5
2017-01-17T04:19:20.619Z,0.47
2017-01-17T04:20:30.586Z,0.48
2017-01-17T04:21:41.323Z,0.5
2017-01-17T04:22:51.273Z,0.48
2017-01-17T04:24:02.017Z,0.48
2017-01-17T04:25:12.762Z,0.53
2017-01-17T04:26:23.551Z,0.48
2017-01-17T04:27:34.340Z,0.61
2017-01-17T04:28:45.084Z,0.64
2017-01-17T04:29:55.825Z,0.61
2017-01-17T04:31:06.196Z,0.64
2017-01-17T04:32:16.542Z,0.61
2017-01-17T04:33:26.886Z,0.64
2017-01-17T04:34:37.233Z,0.61
2017-01-17T04:35:47.977Z,0.61
2017-01-17T04:36:58.357Z,0.6
2017-01-17T04:38:08.698Z,0.63
2017-01-17T04:39:19.449Z,0.64
2017-01-17T04:40:29.792Z,0.69
2017-01-17T04:41:40.536Z,0.61
2017-01-17T04:42:51.299Z,0.74
2017-01-17T04:44:01.649Z,0.71
2017-01-17T04:45:12.434Z,0.72
2017-01-17T04:46:23.179Z,0.69
2017-01-17T04:47:33.536Z,0.66
2017-01-17T04:48:44.285Z,0.69
2017-01-17T04:49:54.668Z,0.66
2017-01-17T04:51:05.426Z,0.63
2017-01-17T04:52:15.773Z,0.78
2017-01-17T04:53:26.521Z,0.79
2017-01-17T04:54:36.852Z,0.64
2017-01-17T04:55:47.602Z,0.78
2017-01-17T04:56:58.337Z,0.74
2017-01-17T04:58:08.296Z,0.79
2017-01-17T04:59:18.635Z,0.78
2017-01-17T05:00:29.379Z,0.78
2017-01-17T05:01:39.722Z,0.84
2017-01-17T05:02:50.062Z,0.82
2017-01-17T05:04:00.410Z,0.79
2017-01-17T05:05:10.751Z,0.84
2017-01-17T05:06:21.102Z,0.84
2017-01-17T05:07:31.849Z,0.84
2017-01-17T05:08:42.191Z,0.86
2017-01-17T05:09:52.143Z,0.85
2017-01-17T05:11:02.476Z,0.89
2017-01-17T05:12:13.221Z,0.85
2017-01-17T05:13:23.565Z,0.89
2017-01-17T05:14:33.901Z,0.93
2017-01-17T05:15:44.644Z,0.89
2017-01-17T05:16:54.980Z,0.9
2017-01-17T05:18:04.926Z,0.92
2017-01-17T05:19:15.258Z,0.94
2017-01-17T05:20:25.591Z,0.86
2017-01-17T05:21:35.536Z,1
2017-01-17T05:22:45.901Z,0.96
2017-01-17T05:23:56.239Z,0.96
2017-01-17T05:25:06.971Z,0.97
2017-01-17T05:26:17.707Z,0.96
2017-01-17T05:27:28.044Z,0.97
2017-01-17T05:28:38.426Z,0.92
2017-01-17T05:29:49.181Z,0.92
2017-01-17T05:30:59.163Z,1
2017-01-17T05:32:09.890Z,0.97
2017-01-17T05:33:20.631Z,0.97
2017-01-17T05:34:30.979Z,0.99
2017-01-17T05:35:41.725Z,0.89
2017-01-17T05:36:51.672Z,0.92
2017-01-17T05:38:02.419Z,0.85
2017-01-17T05:39:12.755Z,0.93
2017-01-17T05:40:23.494Z,0.84
2017-01-17T05:41:33.872Z,0.92
2017-01-17T05:42:43.432Z,0.93
2017-01-17T05:43:54.204Z,0.92
2017-01-17T05:45:04.959Z,0.92
2017-01-17T05:46:15.697Z,0.85
2017-01-17T05:47:26.058Z,0.86
2017-01-17T05:48:35.249Z,0.84
2017-01-17T05:49:45.598Z,0.82
2017-01-17T05:50:55.932Z,0.85
2017-01-17T05:52:06.290Z,0.86
2017-01-17T05:53:16.271Z,0.81
2017-01-17T05:54:27.027Z,0.85
2017-01-17T05:55:37.780Z,0.78
2017-01-17T05:56:48.117Z,0.86
2017-01-17T05:57:58.467Z,0.86
2017-01-17T05:59:09.214Z,0.81
2017-01-17T06:00:19.539Z,0.82
2017-01-17T06:01:30.299Z,0.79
2017-01-17T06:02:40.260Z,0.79
2017-01-17T06:03:50.608Z,0.72
2017-01-17T06:05:01.359Z,0.82
2017-01-17T06:06:11.309Z,0.89
2017-01-17T06:07:22.067Z,0.81
2017-01-17T06:08:32.060Z,0.86
2017-01-17T06:09:42.405Z,0.81
2017-01-17T06:10:53.172Z,0.84
2017-01-17T06:12:03.894Z,0.86
2017-01-17T06:13:13.840Z,0.84
2017-01-17T06:14:24.563Z,0.85
2017-01-17T06:15:34.533Z,0.89
2017-01-17T06:16:45.282Z,0.82
2017-01-17T06:17:56.034Z,0.82
2017-01-17T06:19:06.779Z,0.81
2017-01-17T06:20:17.522Z,0.86
2017-01-17T06:21:27.858Z,0.82
2017-01-17T06:22:38.203Z,0.82
2017-01-17T06:23:48.975Z,0.86
2017-01-17T06:24:59.717Z,0.84
2017-01-17T06:26:09.264Z,0.82
2017-01-17T06:27:19.611Z,0.86
2017-01-17T06:28:29.558Z,0.78
2017-01-17T06:29:39.890Z,0.86
2017-01-17T06:30:50.266Z,0.89
2017-01-17T06:32:00.244Z,0.85
2017-01-17T06:33:10.965Z,0.9
2017-01-17T06:34:20.908Z,0.94
2017-01-17T06:35:31.658Z,0.96
2017-01-17T06:36:42.425Z,0.97
2017-01-17T06:37:51.972Z,1.03
2017-01-17T06:39:02.323Z,1.12
2017-01-17T06:40:12.290Z,1.1
2017-01-17T06:41:23.026Z,1.22
2017-01-17T06:42:33.797Z,1.28
2017-01-17T06:43:44.159Z,1.21
2017-01-17T06:44:54.887Z,1.3
2017-01-17T06:46:05.268Z,1.35
2017-01-17T06:47:15.625Z,1.33
2017-01-17T06:48:25.617Z,1.39
2017-01-17T06:49:36.345Z,1.39
2017-01-17T06:50:47.086Z,1.4
2017-01-17T06:51:57.441Z,1.42
2017-01-17T06:53:07.788Z,1.51
2017-01-17T06:54:18.531Z,1.4
2017-01-17T06:55:29.307Z,1.46
2017-01-17T06:56:40.048Z,1.48
2017-01-17T06:57:50.016Z,1.56
2017-01-17T06:59:00.758Z,1.53
2017-01-17T07:00:10.815Z,1.54
2017-01-17T07:01:21.551Z,1.54
2017-01-17T07:02:31.894Z,1.6
2017-01-17T07:03:41.469Z,1.64
2017-01-17T07:04:51.815Z,1.68
2017-01-17T07:06:02.563Z,1.65
2017-01-17T07:07:13.319Z,1.64
2017-01-17T07:08:24.052Z,1.66
2017-01-17T07:09:34.810Z,1.68
2017-01-17T07:10:45.535Z,1.78
2017-01-17T07:11:55.506Z,1.72
2017-01-17T07:13:04.658Z,1.74
2017-01-17T07:14:15.410Z,1.79
2017-01-17T07:15:26.176Z,1.84
2017-01-17T07:16:36.918Z,1.87
2017-01-17T07:17:47.661Z,1.87
2017-01-17T07:18:58.423Z,1.75
2017-01-17T07:20:08.391Z,1.72
2017-01-17T07:21:18.355Z,1.75
2017-01-17T07:22:28.703Z,1.87
2017-01-17T07:23:39.449Z,1.86
2017-01-17T07:24:50.195Z,1.92
2017-01-17T07:26:00.139Z,1.93
2017-01-17T07:27:10.489Z,1.92
2017-01-17T07:28:21.233Z,2.02
2017-01-17T07:29:31.577Z,1.94
2017-01-17T07:30:41.539Z,2.04
2017-01-17T07:31:51.890Z,2.09
2017-01-17T07:33:02.647Z,2.13
2017-01-17T07:34:12.989Z,2.11
2017-01-17T07:35:23.350Z,2.16
2017-01-17T07:36:33.698Z,2.13
2017-01-17T07:37:44.048Z,2.18
2017-01-17T07:38:54.420Z,2.15
2017-01-17T07:40:05.176Z,2.11
2017-01-17T07:41:15.550Z,2.18
2017-01-17T07:42:25.536Z,2.23
2017-01-17T07:43:36.297Z,2.3
2017-01-17T07:44:47.045Z,2.23
2017-01-17T07:45:57.773Z,2.29
2017-01-17T07:47:08.139Z,2.36
2017-01-17T07:48:18.469Z,2.45
2017-01-17T07:49:28.821Z,2.4
2017-01-17T07:50:38.768Z,2.48
2017-01-17T07:51:49.508Z,2.49
2017-01-17T07:53:00.245Z,2.62
2017-01-17T07:54:10.208Z,2.62
2017-01-17T07:55:20.555Z,2.69
2017-01-17T07:56:30.896Z,2.62
2017-01-17T07:57:41.652Z,2.72
2017-01-17T07:58:51.990Z,2.72
2017-01-17T08:00:02.352Z,2.69
2017-01-17T08:01:13.082Z,2.76
2017-01-17T08:02:23.834Z,2.77
2017-01-17T08:03:34.561Z,2.77
2017-01-17T08:04:45.307Z,2.77
2017-01-17T08:05:56.060Z,2.85
2017-01-17T08:07:06.796Z,2.85
2017-01-17T08:08:17.163Z,2.91
2017-01-17T08:09:27.500Z,2.93
2017-01-17T08:10:37.468Z,2.96
2017-01-17T08:11:47.028Z,3.06
2017-01-17T08:12:57.475Z,3.08
2017-01-17T08:14:08.571Z,3.06
2017-01-17T08:15:20.133Z,3.11
2017-01-17T08:16:31.626Z,2.99
2017-01-17T08:17:42.619Z,3.02
2017-01-17T08:18:54.328Z,3.13
2017-01-17T08:20:05.609Z,3.08
2017-01-17T08:21:16.342Z,3.17
2017-01-17T08:22:27.094Z,3.13
2017-01-17T08:23:37.849Z,3.19
2017-01-17T08:24:48.191Z,3.11
2017-01-17T08:25:58.529Z,3.14
2017-01-17T08:27:09.328Z,3.13
2017-01-17T08:28:20.102Z,3.08
2017-01-17T08:29:30.858Z,3.13
2017-01-17T08:30:40.815Z,3.13
2017-01-17T08:31:51.161Z,3.19
2017-01-17T08:33:01.972Z,3.26
2017-01-17T08:34:11.949Z,3.32
2017-01-17T08:35:22.296Z,3.29
2017-01-17T08:36:32.257Z,3.42
2017-01-17T08:37:42.610Z,3.37
2017-01-17T08:38:52.563Z,3.34
2017-01-17T08:40:02.903Z,3.39
2017-01-17T08:41:13.654Z,3.39
2017-01-17T08:42:24.401Z,3.37
2017-01-17T08:43:35.135Z,3.37
2017-01-17T08:44:45.085Z,3.53
2017-01-17T08:45:55.436Z,3.56
2017-01-17T08:47:05.794Z,3.56
2017-01-17T08:48:15.750Z,3.56
2017-01-17T08:49:26.488Z,3.49
2017-01-17T08:50:37.229Z,3.42
2017-01-17T08:51:47.596Z,3.42
2017-01-17T08:52:57.568Z,3.48
2017-01-17T08:54:07.908Z,3.49
2017-01-17T08:55:18.640Z,3.58
2017-01-17T08:56:29.005Z,3.67
2017-01-17T08:57:38.943Z,3.71
2017-01-17T08:58:49.308Z,3.84
2017-01-17T08:59:59.296Z,3.76
2017-01-17T09:01:09.229Z,3.78
2017-01-17T09:02:19.966Z,3.86
2017-01-17T09:03:30.303Z,3.93
2017-01-17T09:04:41.078Z,3.97
2017-01-17T09:05:51.434Z,3.78
2017-01-17T09:07:01.773Z,3.84
2017-01-17T09:08:12.527Z,3.89
2017-01-17T09:09:22.877Z,3.9
2017-01-17T09:10:32.836Z,3.92
2017-01-17T09:11:43.217Z,3.93
2017-01-17T09:12:53.185Z,3.86
2017-01-17T09:14:03.977Z,3.89
2017-01-17T09:15:14.346Z,3.85
2017-01-17T09:16:25.100Z,3.94
2017-01-17T09:17:35.444Z,4.03
2017-01-17T09:18:46.203Z,3.97
2017-01-17T09:19:56.545Z,4.03
2017-01-17T09:21:07.286Z,3.93
2017-01-17T09:22:17.684Z,3.92
2017-01-17T09:23:28.071Z,4
2017-01-17T09:24:38.038Z,4.21
2017-01-17T09:25:48.793Z,4.28
2017-01-17T09:26:59.578Z,4.33
2017-01-17T09:28:10.332Z,4.75
2017-01-17T09:29:21.068Z,4.91
2017-01-17T09:30:30.640Z,5.3
2017-01-17T09:31:41.012Z,5.42
2017-01-17T09:32:51.211Z,5.59
2017-01-17T09:34:01.286Z,5.75
2017-01-17T09:35:11.622Z,5.75
2017-01-17T09:36:21.964Z,5.48
2017-01-17T09:37:31.926Z,5.63
2017-01-17T09:38:42.676Z,5.42
2017-01-17T09:39:53.423Z,5.8
2017-01-17T09:41:04.182Z,5.77
2017-01-17T09:42:14.532Z,5.59
2017-01-17T09:43:25.271Z,5.6
2017-01-17T09:44:35.620Z,5.44
2017-01-17T09:45:45.949Z,5.15
2017-01-17T09:46:56.719Z,5.05
2017-01-17T09:48:06.697Z,5.06
2017-01-17T09:49:16.667Z,5.12
2017-01-17T09:50:27.026Z,5.34
2017-01-17T09:51:37.375Z,5.3
2017-01-17T09:52:48.131Z,5.42
2017-01-17T09:53:58.464Z,5.49
2017-01-17T09:55:09.221Z,5.46
2017-01-17T09:56:19.967Z,5.39
2017-01-17T09:57:30.334Z,5.44
2017-01-17T09:58:41.092Z,5.39
2017-01-17T09:59:51.895Z,5.33
2017-01-17T10:01:02.674Z,5.49
2017-01-17T10:02:13.425Z,5.37
2017-01-17T10:03:24.172Z,5.12
2017-01-17T10:04:34.163Z,5.09
2017-01-17T10:05:44.540Z,5.03
2017-01-17T10:06:54.892Z,4.88
2017-01-17T10:08:05.640Z,4.87
2017-01-17T10:09:16.427Z,4.94
2017-01-17T10:10:26.790Z,4.98
2017-01-17T10:11:37.150Z,5.09
2017-01-17T10:12:47.892Z,5.15
2017-01-17T10:13:58.674Z,5.15
2017-01-17T10:15:09.028Z,5.12
2017-01-17T10:16:19.794Z,5.26
2017-01-17T10:17:30.529Z,5.3
2017-01-17T10:18:40.876Z,5.06
2017-01-17T10:19:51.222Z,5.12
2017-01-17T10:21:01.579Z,5.2
2017-01-17T10:22:12.330Z,5.2
2017-01-17T10:23:22.703Z,5.18
2017-01-17T10:24:33.455Z,5.1
2017-01-17T10:25:44.216Z,5.15
2017-01-17T10:26:54.579Z,5.16
2017-01-17T10:28:04.544Z,5.12
2017-01-17T10:29:14.881Z,5.12
2017-01-17T10:30:25.658Z,5.34
2017-01-17T10:31:36.044Z,5.44
2017-01-17T10:32:46.386Z,5.57
2017-01-17T10:33:56.759Z,5.77
2017-01-17T10:35:07.114Z,6.05
2017-01-17T10:36:17.473Z,6.03
2017-01-17T10:37:27.828Z,5.85
2017-01-17T10:38:38.610Z,5.8
2017-01-17T10:39:48.566Z,5.72
2017-01-17T10:40:58.914Z,5.67
2017-01-17T10:42:09.687Z,5.81
2017-01-17T10:43:20.128Z,5.82
2017-01-17T10:44:30.482Z,5.67
2017-01-17T10:45:40.841Z,5.59
2017-01-17T10:46:51.585Z,5.57
2017-01-17T10:48:01.935Z,5.44
2017-01-17T10:49:12.297Z,5.41
2017-01-17T10:50:23.067Z,5.46
2017-01-17T10:51:33.400Z,5.54
2017-01-17T10:52:43.742Z,5.46
2017-01-17T10:53:54.497Z,5.49
2017-01-17T10:55:04.889Z,5.48
2017-01-17T10:56:15.261Z,5.41
2017-01-17T10:57:25.217Z,5.45
2017-01-17T10:58:35.163Z,5.51
2017-01-17T10:59:44.720Z,5.44
2017-01-17T11:00:55.088Z,5.33
2017-01-17T11:02:05.841Z,5.33
2017-01-17T11:03:16.606Z,5.42
2017-01-17T11:04:27.388Z,5.45
2017-01-17T11:05:38.146Z,5.42
2017-01-17T11:06:48.502Z,5.45
2017-01-17T11:07:58.474Z,5.41
2017-01-17T11:09:08.913Z,5.36
2017-01-17T11:10:18.875Z,5.34
2017-01-17T11:11:29.629Z,5.36
2017-01-17T11:12:40.386Z,5.37
2017-01-17T11:13:51.160Z,5.39
2017-01-17T11:15:01.515Z,5.42
2017-01-17T11:16:11.900Z,5.3
2017-01-17T11:17:22.262Z,5.42
2017-01-17T11:18:33.029Z,5.44
2017-01-17T11:19:43.410Z,5.51
2017-01-17T11:20:54.171Z,5.45
2017-01-17T11:22:04.540Z,5.39
2017-01-17T11:23:15.315Z,5.37
2017-01-17T11:24:25.261Z,5.27
2017-01-17T11:25:36.045Z,5.1
2017-01-17T11:26:46.845Z,5.06
2017-01-17T11:27:57.609Z,4.94
2017-01-17T11:29:07.565Z,4.84
2017-01-17T11:30:17.965Z,4.9
2017-01-17T11:31:27.923Z,4.79
2017-01-17T11:32:38.660Z,4.78
2017-01-17T11:33:49.015Z,4.64
2017-01-17T11:34:59.397Z,4.68
2017-01-17T11:36:10.125Z,4.58
2017-01-17T11:37:20.871Z,4.48
2017-01-17T11:38:31.220Z,4.51
2017-01-17T11:39:41.572Z,4.32
2017-01-17T11:40:51.141Z,4.42
2017-01-17T11:42:01.890Z,4.29
2017-01-17T11:43:12.653Z,4.28
2017-01-17T11:44:23.407Z,4.28
2017-01-17T11:45:33.810Z,4.18
2017-01-17T11:46:44.149Z,4.35
2017-01-17T11:47:54.534Z,4.35
2017-01-17T11:49:05.315Z,4.48
2017-01-17T11:50:15.733Z,4.36
2017-01-17T11:51:26.107Z,4.39
2017-01-17T11:52:36.483Z,4.33
2017-01-17T11:53:46.506Z,4.47
2017-01-17T11:54:57.288Z,4.36
2017-01-17T11:56:07.682Z,4.4
2017-01-17T11:57:18.478Z,4.39
2017-01-17T11:58:29.255Z,4.53
2017-01-17T11:59:39.624Z,4.4
2017-01-17T12:00:49.984Z,4.44
2017-01-17T12:01:59.564Z,4.54
2017-01-17T12:03:09.913Z,4.5
2017-01-17T12:04:20.256Z,4.51
2017-01-17T12:05:30.998Z,4.51
2017-01-17T12:06:40.991Z,4.57
2017-01-17T12:07:51.015Z,4.48
2017-01-17T12:09:01.779Z,4.47
2017-01-17T12:10:12.544Z,4.47
2017-01-17T12:11:22.936Z,4.47
2017-01-17T12:12:32.896Z,4.47
2017-01-17T12:13:43.664Z,4.56
2017-01-17T12:14:54.019Z,4.53
2017-01-17T12:16:04.780Z,4.53
2017-01-17T12:17:15.564Z,4.54
2017-01-17T12:18:25.972Z,4.53
2017-01-17T12:19:36.335Z,4.5
2017-01-17T12:20:46.715Z,4.48
2017-01-17T12:21:57.084Z,4.44
2017-01-17T12:23:07.453Z,4.36
2017-01-17T12:24:17.411Z,4.48
2017-01-17T12:25:28.171Z,4.36
2017-01-17T12:26:38.912Z,4.36
2017-01-17T12:27:49.282Z,4.39
2017-01-17T12:28:59.632Z,4.36
2017-01-17T12:30:09.594Z,4.44
2017-01-17T12:31:19.947Z,4.51
2017-01-17T12:32:30.299Z,4.5
2017-01-17T12:33:40.297Z,4.6
2017-01-17T12:34:51.072Z,4.64
2017-01-17T12:36:01.817Z,4.65
2017-01-17T12:37:12.175Z,4.6
2017-01-17T12:38:22.932Z,4.51
2017-01-17T12:39:33.302Z,4.46
2017-01-17T12:40:44.055Z,4.51
2017-01-17T12:41:54.434Z,4.57
2017-01-17T12:43:04.799Z,4.53
2017-01-17T12:44:14.770Z,4.51
2017-01-17T12:45:25.124Z,4.5
2017-01-17T12:46:35.882Z,4.65
2017-01-17T12:47:46.246Z,4.65
2017-01-17T12:48:56.229Z,4.61
2017-01-17T12:50:06.593Z,4.61
2017-01-17T12:51:17.342Z,4.66
2017-01-17T12:52:27.706Z,4.61
2017-01-17T12:53:38.480Z,4.56
2017-01-17T12:54:49.233Z,4.42
2017-01-17T12:55:59.600Z,4.4
2017-01-17T12:57:10.350Z,4.38
2017-01-17T12:58:21.111Z,4.4
2017-01-17T12:59:31.909Z,4.38
2017-01-17T13:00:41.925Z,4.32
2017-01-17T13:01:52.295Z,4.39
2017-01-17T13:03:03.107Z,4.42
2017-01-17T13:04:13.857Z,4.29
2017-01-17T13:05:24.617Z,4.32
2017-01-17T13:06:34.593Z,4.36
2017-01-17T13:07:45.354Z,4.39
2017-01-17T13:08:55.715Z,4.46
2017-01-17T13:10:06.495Z,4.44
2017-01-17T13:11:16.876Z,4.46
2017-01-17T13:12:27.644Z,4.42
2017-01-17T13:13:37.650Z,4.48
2017-01-17T13:14:48.000Z,4.53
2017-01-17T13:15:58.766Z,4.57
2017-01-17T13:17:08.728Z,4.53
2017-01-17T13:18:19.136Z,4.47
2017-01-17T13:19:29.936Z,4.51
2017-01-17T13:20:39.918Z,4.48
2017-01-17T13:21:49.861Z,4.47
2017-01-17T13:23:00.624Z,4.4
2017-01-17T13:24:10.593Z,4.4
2017-01-17T13:25:21.625Z,4.38
2017-01-17T13:26:31.595Z,4.42
2017-01-17T13:27:41.959Z,4.35
2017-01-17T13:28:52.730Z,4.39
2017-01-17T13:30:03.527Z,4.36
2017-01-17T13:31:14.324Z,4.39
2017-01-17T13:32:24.284Z,4.4
2017-01-17T13:33:35.044Z,4.32
2017-01-17T13:34:45.808Z,4.39
2017-01-17T13:35:56.550Z,4.51
2017-01-17T13:37:06.944Z,4.48
2017-01-17T13:38:17.698Z,4.53
2017-01-17T13:39:28.083Z,4.5
2017-01-17T13:40:38.088Z,4.61
2017-01-17T13:41:48.441Z,4.56
2017-01-17T13:42:58.800Z,4.56
2017-01-17T13:44:08.809Z,4.51
2017-01-17T13:45:18.777Z,4.48
2017-01-17T13:46:29.531Z,4.47
2017-01-17T13:47:40.264Z,4.48
2017-01-17T13:48:51.024Z,4.47
2017-01-17T13:50:01.403Z,4.5
2017-01-17T13:51:12.161Z,4.51
2017-01-17T13:52:22.930Z,4.51
2017-01-17T13:53:33.930Z,4.54
2017-01-17T13:54:43.895Z,4.5
2017-01-17T13:55:54.655Z,4.47
2017-01-17T13:57:05.037Z,4.53
2017-01-17T13:58:15.852Z,4.48
2017-01-17T13:59:25.823Z,4.46
2017-01-17T14:00:36.584Z,4.5
2017-01-17T14:01:46.571Z,4.47
2017-01-17T14:02:56.550Z,4.48
2017-01-17T14:04:07.284Z,4.42
2017-01-17T14:05:17.644Z,4.33
2017-01-17T14:06:27.999Z,4.39
2017-01-17T14:07:38.793Z,4.4
2017-01-17T14:08:49.565Z,4.3
2017-01-17T14:09:59.922Z,4.18
2017-01-17T14:11:10.738Z,4.14
2017-01-17T14:12:21.509Z,4.32
2017-01-17T14:13:31.927Z,4.32
2017-01-17T14:14:42.301Z,4.14
2017-01-17T14:15:52.657Z,4.3
2017-01-17T14:17:03.413Z,4.29
2017-01-17T14:18:14.188Z,4.22
2017-01-17T14:19:24.542Z,4.17
2017-01-17T14:20:34.895Z,4.2
2017-01-17T14:21:45.685Z,4.26
2017-01-17T14:22:56.464Z,4.24
2017-01-17T14:24:07.241Z,4.18
2017-01-17T14:25:17.644Z,4.24
2017-01-17T14:26:27.992Z,4.12
2017-01-17T14:27:38.083Z,4.12
2017-01-17T14:28:49.238Z,4.21
2017-01-17T14:29:59.591Z,4.18
2017-01-17T14:31:10.042Z,4.28
2017-01-17T14:32:20.430Z,4.22
2017-01-17T14:33:30.410Z,4.17
2017-01-17T14:34:40.758Z,4.17
2017-01-17T14:35:51.535Z,4.14
2017-01-17T14:37:02.337Z,4.1
2017-01-17T14:38:12.730Z,4.07
2017-01-17T14:39:23.485Z,4.02
2017-01-17T14:40:34.244Z,4.03
2017-01-17T14:41:45.019Z,3.97
2017-01-17T14:42:55.361Z,3.94
2017-01-17T14:44:04.927Z,3.97
2017-01-17T14:45:15.721Z,3.86
2017-01-17T14:46:26.089Z,3.9
2017-01-17T14:47:36.858Z,3.89
2017-01-17T14:48:46.874Z,3.82
2017-01-17T14:52:30.036Z,3.75
2017-01-17T14:56:12.484Z,3.51
2017-01-17T14:57:22.909Z,3.58
2017-01-17T14:58:33.663Z,3.42
2017-01-17T14:59:44.423Z,3.39
2017-01-17T15:00:55.159Z,3.27
2017-01-17T15:02:07.329Z,3.39
2017-01-17T15:03:19.968Z,3.39
2017-01-17T15:04:31.713Z,3.39
2017-01-17T15:05:42.432Z,3.35
2017-01-17T15:06:52.393Z,3.35
2017-01-17T15:08:02.363Z,3.29
2017-01-17T15:09:13.130Z,3.32
2017-01-17T15:10:23.914Z,3.34
2017-01-17T15:11:34.283Z,3.37
2017-01-17T15:12:44.644Z,3.37
2017-01-17T15:13:55.016Z,3.32
2017-01-17T15:15:04.576Z,3.3
2017-01-17T15:16:14.991Z,3.27
2017-01-17T15:17:25.401Z,3.09
2017-01-17T15:18:35.414Z,3.16
2017-01-17T15:19:46.166Z,3.13
2017-01-17T15:20:56.536Z,3.08
2017-01-17T15:22:06.933Z,3.03
2017-01-17T15:23:17.341Z,2.96
2017-01-17T15:24:27.694Z,2.93
2017-01-17T15:25:37.697Z,2.91
2017-01-17T15:26:48.443Z,2.91
2017-01-17T15:27:59.193Z,2.76
2017-01-17T15:29:09.161Z,2.8
2017-01-17T15:30:19.516Z,2.77
2017-01-17T15:31:30.259Z,2.76
2017-01-17T15:32:41.032Z,2.73
2017-01-17T15:33:51.587Z,2.72
2017-01-17T15:35:01.530Z,2.66
2017-01-17T15:36:11.925Z,2.72
2017-01-17T15:37:22.703Z,2.65
2017-01-17T15:38:33.478Z,2.6
2017-01-17T15:39:44.246Z,2.6
2017-01-17T15:40:54.633Z,2.62
2017-01-17T15:42:04.612Z,2.65
2017-01-17T15:43:15.362Z,2.58
2017-01-17T15:44:26.149Z,2.6
2017-01-17T15:45:36.511Z,2.58
2017-01-17T15:46:47.265Z,2.54
2017-01-17T15:47:58.038Z,2.54
2017-01-17T15:49:08.698Z,2.52
2017-01-17T15:50:19.083Z,2.51
2017-01-17T15:51:29.444Z,2.55
2017-01-17T15:52:39.829Z,2.55
2017-01-17T15:53:50.196Z,2.54
2017-01-17T15:55:00.967Z,2.54
2017-01-17T15:56:11.367Z,2.59
2017-01-17T15:57:22.112Z,2.62
2017-01-17T15:58:32.068Z,2.59
2017-01-17T15:59:42.039Z,2.49
2017-01-17T16:00:52.834Z,2.54
2017-01-17T16:02:02.905Z,2.51
2017-01-17T16:03:12.917Z,2.49
2017-01-17T16:04:23.291Z,2.47
2017-01-17T16:05:34.059Z,2.54
2017-01-17T16:06:44.448Z,2.51
2017-01-17T16:07:54.814Z,2.55
2017-01-17T16:09:05.579Z,2.48
2017-01-17T16:10:15.589Z,2.52
2017-01-17T16:11:25.976Z,2.48
2017-01-17T16:12:36.739Z,2.48
2017-01-17T16:13:47.509Z,2.45
2017-01-17T16:14:58.265Z,2.41
2017-01-17T16:16:09.012Z,2.41